Flight Track Log - Related Links

Times and Time Zones

All times are in EDT time to prevent confusion due to time zone crossing. See the EJA831 flight status page for this flight to view local times or setup timezone preferences in your user account.

Time Position Orientation Groundspeed Altitude Reporting Facility
EDT Latitude Longitude Course Direction KTS MPH feet Rate Location/Type
Wed 02:07:40 PM 26.1600 -81.9139 340° North 225 259 6,200  Level Miami Center
Wed 02:08:40 PM 26.1781 -81.9978 284° West 253 291 9,000 2,700 Climbing Miami Center
Wed 02:09:40 PM 26.2017 -82.0961 285° West 281 323 11,600 2,500 Climbing Miami Center
Wed 02:10:40 PM 26.2250 -82.2011 284° West 328 377 14,000 2,400 Climbing Miami Center
Wed 02:11:40 PM 26.2528 -82.2975 288° West 328 377 16,400 2,350 Climbing Miami Center
Wed 02:12:00 PM 26.1952 -82.3883 340° North  Level FlightAware Approximate
Wed 02:12:40 PM 26.3258 -82.3539 325° Northwest 300 345 18,700  Level Miami Center
Wed 02:13:00 PM 26.2939 -82.4294 340° North  Level FlightAware Approximate
Wed 02:13:40 PM 26.4100 -82.3928 338° Northwest 308 354 21,200  Level Miami Center
Wed 02:14:40 PM 26.4939 -82.4336 336° Northwest 313 360 23,600 2,150 Climbing Miami Center
Wed 02:15:40 PM 26.5594 -82.4622 339° North 319 367 25,500 2,100 Climbing Miami Center
Wed 02:16:40 PM 26.6456 -82.5036 337° Northwest 312 359 27,800 1,850 Climbing Miami Center
Wed 02:17:40 PM 26.7275 -82.5447 336° Northwest 312 359 29,200 1,400 Climbing Miami Center
Wed 02:18:40 PM 26.8136 -82.5839 338° Northwest 318 366 30,600 1,450 Climbing Miami Center
Wed 02:19:40 PM 26.8997 -82.6253 337° Northwest 329 379 32,100 1,450 Climbing Miami Center
Wed 02:20:40 PM 26.9878 -82.6644 338° Northwest 334 384 33,500 1,400 Climbing Miami Center
Wed 02:21:40 PM 27.0717 -82.7061 336° Northwest 334 384 34,900 1,400 Climbing Miami Center
Wed 02:22:40 PM 27.1556 -82.7453 337° Northwest 329 379 36,300 1,400 Climbing Miami Center
Wed 02:23:40 PM 27.2397 -82.7844 338° Northwest 329 379 37,700 1,350 Climbing Miami Center
Wed 02:24:40 PM 27.3194 -82.8192 339° North 324 373 39,000 1,200 Climbing Miami Center
Wed 02:25:40 PM 27.4136 -82.8636 337° Northwest 324 373 40,100 975 Climbing Miami Center
Wed 02:28:03 PM 27.5867 -82.9489 336° Northwest 305 351 42,300 828 Climbing Jacksonville Center
Wed 02:29:03 PM 27.6617 -82.9817 339° North 294 338 42,900 350 Climbing Jacksonville Center
Wed 02:30:03 PM 27.7367 -83.0192 336° Northwest 294 338 43,000 50 Climbing Jacksonville Center
Wed 02:31:03 PM 27.8161 -83.0567 337° Northwest 301 346 43,000  Level Jacksonville Center
Wed 02:32:03 PM 27.8972 -83.0969 336° Northwest 306 352 43,000  Level Jacksonville Center
Wed 02:33:03 PM 27.9828 -83.1369 338° Northwest 319 367 43,000  Level Jacksonville Center
Wed 02:34:03 PM 28.0808 -83.1419 357° North 325 374 43,000  Level Jacksonville Center
Wed 02:35:03 PM 28.1831 -83.1375 North 349 402 43,000  Level Jacksonville Center
Wed 02:36:03 PM 28.2853 -83.1283 North 356 410 43,000  Level Jacksonville Center
Wed 02:37:03 PM 28.3875 -83.1333 358° North 363 418 43,000  Level Jacksonville Center
Wed 02:38:03 PM 28.4836 -83.1547 349° North 357 411 43,000  Level Jacksonville Center
Wed 02:39:04 PM 28.5817 -83.1786 348° North 352 405 43,000  Level Jacksonville Center
Wed 02:40:03 PM 28.6775 -83.2003 349° North 352 405 43,000  Level Jacksonville Center
Wed 02:41:03 PM 28.7778 -83.2242 348° North 352 405 43,000  Level Jacksonville Center
Wed 02:42:03 PM 28.8736 -83.2483 348° North 352 405 43,000  Level Jacksonville Center
Wed 02:43:04 PM 28.9694 -83.2722 348° North 352 405 43,000  Level Jacksonville Center
Wed 02:44:03 PM 29.0675 -83.2942 349° North 357 411 43,000  Level Jacksonville Center
Wed 02:45:03 PM 29.1678 -83.3183 348° North 357 411 43,000  Level Jacksonville Center
Wed 02:46:03 PM 29.2678 -83.3425 348° North 357 411 43,000  Level Jacksonville Center
Wed 02:47:03 PM 29.3681 -83.3667 348° North 357 411 43,000  Level Jacksonville Center
Wed 02:48:03 PM 29.4639 -83.3911 347° North 357 411 43,000  Level Jacksonville Center
Wed 02:49:03 PM 29.5639 -83.4156 348° North 357 411 43,000  Level Jacksonville Center
Wed 02:50:03 PM 29.6619 -83.4400 348° North 357 411 43,000  Level Jacksonville Center
Wed 02:51:03 PM 29.7642 -83.4644 348° North 357 411 43,000  Level Jacksonville Center
Wed 02:52:03 PM 29.8747 -83.4889 349° North 357 411 43,000  Level Jacksonville Center
Wed 02:53:04 PM 29.9747 -83.5136 348° North 357 411 43,000  Level Jacksonville Center
Wed 02:54:03 PM 30.0750 -83.5358 349° North 357 411 43,000  Level Jacksonville Center
Wed 02:55:03 PM 30.1750 -83.5606 348° North 362 417 43,000  Level Jacksonville Center
Wed 02:56:03 PM 30.2731 -83.5878 347° North 362 417 43,000  Level Jacksonville Center
Wed 02:57:03 PM 30.3753 -83.6100 349° North 362 417 43,000  Level Jacksonville Center
Wed 02:58:03 PM 30.4772 -83.6325 349° North 362 417 43,000  Level Jacksonville Center
Wed 02:59:03 PM 30.5650 -83.6550 348° North 367 422 43,000  Level Jacksonville Center
Wed 03:00:03 PM 30.6669 -83.6822 347° North 362 417 43,000  Level Jacksonville Center
Wed 03:01:03 PM 30.7692 -83.7072 348° North 367 422 43,000  Level Jacksonville Center
Wed 03:02:03 PM 30.8692 -83.7300 349° North 372 428 43,000  Level Jacksonville Center
Wed 03:03:03 PM 30.9736 -83.7575 347° North 377 434 43,000  Level Jacksonville Center
Wed 03:04:03 PM 31.0778 -83.7853 347° North 377 434 43,000  Level Jacksonville Center
Wed 03:05:03 PM 31.1839 -83.8106 348° North 377 434 43,000  Level Jacksonville Center
Wed 03:06:03 PM 31.2839 -83.8358 348° North 372 428 43,000  Level Jacksonville Center
Wed 03:08:05 PM 31.4919 -83.8903 347° North 389 448 43,000  Level Atlanta Center
Wed 03:09:05 PM 31.5942 -83.9219 345° North 384 442 43,000  Level Atlanta Center
Wed 03:10:05 PM 31.7006 -83.9461 349° North 384 442 43,000  Level Atlanta Center
Wed 03:11:05 PM 31.8050 -83.9706 349° North 379 436 43,000  Level Atlanta Center
Wed 03:12:05 PM 31.9136 -83.9947 349° North 373 429 43,000  Level Atlanta Center
Wed 03:13:05 PM 32.0158 -84.0217 347° North 373 429 43,000  Level Atlanta Center
Wed 03:14:05 PM 32.1139 -84.0461 348° North 373 429 43,000  Level Atlanta Center
Wed 03:15:05 PM 32.2183 -84.0708 349° North 373 429 43,000  Level Atlanta Center
Wed 03:16:05 PM 32.3206 -84.0978 347° North 373 429 43,000  Level Atlanta Center
Wed 03:17:05 PM 32.4208 -84.1225 348° North 373 429 43,000  Level Atlanta Center
Wed 03:18:05 PM 32.5231 -84.1497 347° North 373 429 43,000  Level Atlanta Center
Wed 03:19:05 PM 32.6211 -84.1744 348° North 373 429 43,000  Level Atlanta Center
Wed 03:20:05 PM 32.7256 -84.2042 347° North 373 429 43,000  Level Atlanta Center
Wed 03:21:05 PM 32.8153 -84.2267 348° North 373 429 43,000  Level Atlanta Center
Wed 03:22:05 PM 32.9175 -84.2492 350° North 373 429 43,000  Level Atlanta Center
Wed 03:23:05 PM 33.0175 -84.2792 346° North 373 429 43,000  Level Atlanta Center
Wed 03:25:05 PM 33.2303 -84.3344 348° North 373 429 43,000  Level Atlanta Center
Wed 03:26:05 PM 33.3325 -84.3594 348° North 373 429 43,000  Level Atlanta Center
Wed 03:27:05 PM 33.4328 -84.3847 348° North 373 429 43,000  Level Atlanta Center
Wed 03:28:05 PM 33.5369 -84.4125 347° North 373 429 43,000  Level Atlanta Center
Wed 03:29:05 PM 33.6308 -84.4331 350° North 373 429 43,000  Level Atlanta Center
Wed 03:30:05 PM 33.7436 -84.4136 North 380 437 43,000  Level Atlanta Center
Wed 03:31:05 PM 33.8522 -84.3864 12° North 393 452 43,000  Level Atlanta Center
Wed 03:32:05 PM 33.9628 -84.3594 11° North 400 460 43,000  Level Atlanta Center
Wed 03:33:05 PM 34.0756 -84.3347 10° North 400 460 43,000  Level Atlanta Center
Wed 03:34:05 PM 34.2053 -84.3025 12° North 422 486 43,000  Level Atlanta Center
Wed 03:35:05 PM 34.3158 -84.2753 11° North 417 480 43,000  Level Atlanta Center
Wed 03:36:05 PM 34.4286 -84.2478 11° North 410 472 43,000  Level Atlanta Center
Wed 03:37:05 PM 34.5414 -84.2281 North 410 472 43,000  Level Atlanta Center
Wed 03:38:05 PM 34.6478 -84.2358 357° North 393 452 43,000  Level Atlanta Center
Wed 03:39:05 PM 34.7561 -84.2436 357° North 393 452 43,000  Level Atlanta Center
Wed 03:40:05 PM 34.8647 -84.2514 357° North 388 447 43,000 -450 Level Atlanta Center
Wed 03:41:05 PM 34.9608 -84.2592 356° North 381 438 42,100 -1,200 Descending Atlanta Center
Wed 03:42:05 PM 35.0692 -84.2647 358° North 381 438 40,600 -1,550 Descending Atlanta Center
Wed 03:43:05 PM 35.1778 -84.2750 356° North 386 444 39,000 -1,550 Descending Atlanta Center
Wed 03:44:05 PM 35.2903 -84.2806 358° North 386 444 37,500 -1,500 Descending Atlanta Center
Wed 03:45:05 PM 35.4031 -84.2883 357° North 391 450 36,000 -1,250 Descending Atlanta Center
Wed 03:46:05 PM 35.5197 -84.2964 357° North 402 463 35,000 -500 Descending Atlanta Center
Wed 03:47:05 PM 35.6386 -84.3069 356° North 412 474 35,000 -650 Level Atlanta Center
Wed 03:48:05 PM 35.7639 -84.3125 358° North 425 489 33,700 -2,050 Descending Atlanta Center
Wed 03:49:05 PM 35.8847 -84.3206 357° North 435 501 30,900 -2,150 Descending Atlanta Center
Wed 03:50:05 PM 36.0058 -84.3108 North 435 501 29,400 -1,400 Descending Atlanta Center
Wed 03:51:05 PM 36.1311 -84.2856 North 441 507 28,100 -1,669 Descending Atlanta Center
Wed 03:52:54 PM 36.3703 -84.2681 North 439 505 24,700 -1,439 Descending Indianapolis Center
Wed 03:53:56 PM 36.4858 -84.2836 354° North 424 488 24,000 -339 Descending Indianapolis Center
Wed 03:54:58 PM 36.5978 -84.2981 354° North 422 486 24,000  Level Indianapolis Center
Wed 03:56:00 PM 36.7183 -84.3122 355° North 428 493 24,000  Level Indianapolis Center
Wed 03:57:02 PM 36.8586 -84.3308 354° North 434 499 24,000  Level Indianapolis Center
Wed 03:58:04 PM 36.9775 -84.3456 354° North 428 493 24,000 -726 Level Indianapolis Center
Wed 03:59:06 PM 37.0964 -84.3617 354° North 428 493 22,500 -1,680 Descending Indianapolis Center
Wed 04:00:09 PM 37.2097 -84.3744 355° North 414 476 20,500 -2,064 Descending Indianapolis Center
Wed 04:01:11 PM 37.3156 -84.3894 354° North 385 443 18,200 -2,177 Descending Indianapolis Center
Wed 04:02:13 PM 37.4139 -84.4025 354° North 361 415 16,000 -2,371 Descending Indianapolis Center
Wed 04:03:15 PM 37.5281 -84.4172 354° North 352 405 13,300 -2,323 Descending Indianapolis Center
Wed 04:04:17 PM 37.6231 -84.4292 354° North 345 397 11,200 -1,984 Descending Indianapolis Center
Wed 04:05:19 PM 37.7089 -84.4403 354° North 321 369 9,200 -1,887 Descending Indianapolis Center
Wed 04:06:21 PM 37.7933 -84.4517 354° North 308 354 7,300 -1,113 Descending Indianapolis Center
Wed 04:07:23 PM 37.8678 -84.4603 355° North 280 322 6,900 -290 Descending Indianapolis Center
Wed 04:08:25 PM 37.9372 -84.4686 355° North 221 254 6,700 -677 Descending Indianapolis Center
Wed 04:09:27 PM 37.9931 -84.4511 14° North 227 261 5,500 -871 Descending Indianapolis Center
Wed 04:10:29 PM 38.0406 -84.4119 33° Northeast 222 255 4,900 -290 Descending Indianapolis Center
Wed 04:11:31 PM 38.0867 -84.3750 32° Northeast 207 238 4,900  Level Indianapolis Center
Wed 04:12:33 PM 38.1319 -84.3386 32° Northeast 201 231 4,900 -387 Level Indianapolis Center
Wed 04:13:35 PM 38.1825 -84.3375 North 198 228 4,100 -871 Descending Indianapolis Center
Wed 04:14:37 PM 38.2044 -84.3872 299° West 174 200 3,100 -484 Descending Indianapolis Center
Wed 04:15:39 PM 38.1808 -84.4353 238° Southwest 163 188 3,100  Level Indianapolis Center
Wed 04:16:42 PM 38.1494 -84.4811 229° Southwest 166 191 3,100 -144 Level Indianapolis Center
Wed 04:17:44 PM 38.1142 -84.5203 221° Southwest 168 193 2,800 -484 Descending Indianapolis Center
Wed 04:18:46 PM 38.0797 -84.5589 221° Southwest 160 184 2,100 -677 Descending Indianapolis Center

Login

Don't have an account? Register now (free) for customized features, flight alerts, and more!